Time;durP1;ratioP1;P1;durP2;ratioP2;P2;SDS_P1;SDS_P2;PMS_P1;PMS_P2;Temp;Humidity;BMP_temperature;BMP_pressure;BME280_temperature;BME280_humidity;BME280_pressure;Samples;Min_cycle;Max_cycle;Signal;HPM_P1;HPM_P2
2021/12/01 00:02:26;;;;;;;9.77;5.50;;;6.30;60.90;;;;;;4956421;28;20303;-69
2021/12/01 00:04:53;;;;;;;8.57;4.30;;;6.30;61.00;;;;;;4953984;29;20221;-69
2021/12/01 00:07:20;;;;;;;6.20;4.47;;;6.30;61.10;;;;;;4969838;28;20224;-69
2021/12/01 00:09:48;;;;;;;8.33;4.57;;;6.30;61.00;;;;;;4960611;28;20236;-69
2021/12/01 00:12:15;;;;;;;6.67;4.43;;;6.30;60.90;;;;;;4958482;28;20667;-69
2021/12/01 00:14:42;;;;;;;11.57;4.17;;;6.30;60.80;;;;;;4959111;28;20208;-69
2021/12/01 00:17:12;;;;;;;5.37;4.17;;;6.30;60.60;;;;;;4956552;28;20533;-69
2021/12/01 00:19:39;;;;;;;7.57;4.93;;;6.30;60.50;;;;;;4957930;28;20212;-69
2021/12/01 00:22:07;;;;;;;7.17;3.97;;;6.30;60.50;;;;;;4956777;28;20651;-69
2021/12/01 00:24:34;;;;;;;6.80;4.83;;;6.40;60.50;;;;;;4956075;28;20214;-69
2021/12/01 00:27:01;;;;;;;4.10;3.67;;;6.40;60.40;;;;;;4955990;28;20301;-69
2021/12/01 00:29:29;;;;;;;6.63;3.77;;;6.40;60.50;;;;;;4969523;28;20217;-69
2021/12/01 00:31:56;;;;;;;6.27;3.77;;;6.40;60.40;;;;;;4956907;28;20596;-69
2021/12/01 00:34:23;;;;;;;6.83;4.23;;;6.30;60.50;;;;;;4967958;28;20283;-69
2021/12/01 00:36:51;;;;;;;6.23;4.00;;;6.30;60.60;;;;;;4954867;29;20274;-69
2021/12/01 00:39:18;;;;;;;8.07;4.63;;;6.30;60.80;;;;;;4957973;28;20284;-69
2021/12/01 00:41:48;;;;;;;7.40;4.23;;;6.30;61.00;;;;;;4955289;28;20217;-69
2021/12/01 00:44:15;;;;;;;8.47;4.00;;;6.20;61.00;;;;;;4957011;28;20300;-69
2021/12/01 00:46:55;;;;;;;5.97;4.30;;;6.20;61.00;;;;;;4956628;28;20318;-69
2021/12/01 00:49:22;;;;;;;5.23;4.03;;;6.20;61.10;;;;;;4957152;29;20211;-69
2021/12/01 00:51:50;;;;;;;10.20;4.10;;;6.20;61.30;;;;;;4963252;28;20233;-69
2021/12/01 00:54:17;;;;;;;6.03;4.20;;;6.20;61.30;;;;;;4955049;29;20239;-69
2021/12/01 00:56:45;;;;;;;8.30;4.07;;;6.10;61.50;;;;;;4951455;28;20275;-69
2021/12/01 00:59:12;;;;;;;8.00;4.63;;;6.10;61.50;;;;;;4957270;28;20244;-69
2021/12/01 01:01:41;;;;;;;8.17;3.83;;;6.10;61.40;;;;;;4954597;28;20229;-69
2021/12/01 01:04:09;;;;;;;6.60;3.93;;;6.10;61.40;;;;;;4956745;28;20722;-69
2021/12/01 01:06:41;;;;;;;5.30;3.80;;;6.10;61.20;;;;;;4939537;29;20295;-69
2021/12/01 01:09:09;;;;;;;4.63;3.43;;;6.10;61.10;;;;;;4956060;29;20235;-69
2021/12/01 01:17:13;;;;;;;5.07;3.53;;;6.20;60.80;;;;;;4953396;29;20215;-69
2021/12/01 01:19:40;;;;;;;6.17;3.77;;;6.20;60.70;;;;;;4956026;29;20225;-69
2021/12/01 01:22:08;;;;;;;10.60;4.63;;;6.20;60.70;;;;;;4954592;29;20247;-69
2021/12/01 01:24:38;;;;;;;5.53;3.90;;;6.20;60.70;;;;;;4955155;28;20299;-69
2021/12/01 01:27:05;;;;;;;5.10;3.73;;;6.20;60.50;;;;;;4954450;28;20215;-69
2021/12/01 01:29:36;;;;;;;4.67;3.47;;;6.20;60.40;;;;;;4955171;29;20226;-69
2021/12/01 01:32:04;;;;;;;8.03;3.63;;;6.20;60.30;;;;;;4955926;28;20214;-69
2021/12/01 01:34:32;;;;;;;5.53;3.43;;;6.20;60.20;;;;;;4962171;28;20235;-69
2021/12/01 01:36:59;;;;;;;6.67;3.53;;;6.20;60.10;;;;;;4954749;29;20568;-69
2021/12/01 01:39:27;;;;;;;8.77;3.70;;;6.20;60.20;;;;;;4956945;28;20216;-69
2021/12/01 01:41:54;;;;;;;6.07;3.37;;;6.20;60.30;;;;;;4954593;28;20243;-69
2021/12/01 01:44:21;;;;;;;6.33;3.93;;;6.20;60.40;;;;;;4954797;29;20308;-69
2021/12/01 01:46:49;;;;;;;5.83;3.40;;;6.20;60.50;;;;;;4955121;28;20296;-69
2021/12/01 01:49:20;;;;;;;5.27;3.83;;;6.20;60.60;;;;;;4954467;29;20267;-69
2021/12/01 01:51:49;;;;;;;4.30;3.60;;;6.20;60.60;;;;;;4953866;29;20339;-69
2021/12/01 01:54:17;;;;;;;4.00;3.33;;;6.20;60.60;;;;;;4955921;28;20195;-69
2021/12/01 01:56:44;;;;;;;5.33;3.80;;;6.20;60.60;;;;;;4954448;28;20304;-69
2021/12/01 01:59:12;;;;;;;5.03;3.67;;;6.20;61.00;;;;;;4955837;28;20250;-69
2021/12/01 02:01:45;;;;;;;4.47;3.27;;;6.10;61.20;;;;;;4953776;28;20237;-69
2021/12/01 02:04:16;;;;;;;6.30;3.50;;;6.10;61.50;;;;;;4953392;29;20221;-69
2021/12/01 02:06:48;;;;;;;6.33;3.97;;;6.10;61.80;;;;;;4954247;29;20209;-69
2021/12/01 02:09:20;;;;;;;12.17;4.17;;;6.00;61.90;;;;;;4950969;29;20217;-69
2021/12/01 02:11:49;;;;;;;8.53;3.93;;;6.00;62.10;;;;;;4954523;28;20248;-69
2021/12/01 02:14:16;;;;;;;7.60;4.33;;;5.90;62.20;;;;;;4970345;28;20271;-69
2021/12/01 02:16:44;;;;;;;6.47;3.53;;;5.90;62.30;;;;;;4954280;28;20210;-69
2021/12/01 02:19:11;;;;;;;5.70;3.70;;;5.90;62.40;;;;;;4953027;28;20203;-69
2021/12/01 02:21:39;;;;;;;5.03;3.27;;;5.90;62.50;;;;;;4954987;28;20252;-69
2021/12/01 02:24:10;;;;;;;7.57;3.43;;;5.90;62.40;;;;;;4954309;28;20634;-69
2021/12/01 02:26:41;;;;;;;5.73;3.57;;;5.90;62.30;;;;;;4953585;28;20235;-69
2021/12/01 02:29:12;;;;;;;6.30;4.00;;;5.90;62.40;;;;;;4959263;28;20303;-69
2021/12/01 02:31:39;;;;;;;5.50;3.63;;;5.90;62.40;;;;;;4965088;28;20316;-69
2021/12/01 02:34:14;;;;;;;7.77;3.83;;;5.90;62.30;;;;;;4956076;28;20291;-69
2021/12/01 02:36:44;;;;;;;5.13;3.73;;;5.90;62.60;;;;;;4955276;28;20287;-69
2021/12/01 02:39:14;;;;;;;6.37;3.80;;;5.90;63.00;;;;;;4967400;28;20717;-69
2021/12/01 02:41:42;;;;;;;7.33;4.23;;;5.80;63.30;;;;;;4952239;29;20241;-69
2021/12/01 02:44:11;;;;;;;7.77;4.13;;;5.80;63.70;;;;;;4955113;28;20211;-69
2021/12/01 02:46:39;;;;;;;6.17;3.47;;;5.70;63.70;;;;;;4954033;29;20223;-69
2021/12/01 02:49:06;;;;;;;7.77;3.87;;;5.70;63.90;;;;;;4959078;28;20227;-69
2021/12/01 02:51:36;;;;;;;6.57;3.93;;;5.60;64.20;;;;;;4954678;28;20315;-69
2021/12/01 02:54:05;;;;;;;4.70;3.83;;;5.60;64.30;;;;;;4966940;28;20217;-69
2021/12/01 02:56:33;;;;;;;5.80;4.03;;;5.60;64.60;;;;;;4953635;29;20608;-69
2021/12/01 02:59:04;;;;;;;6.33;3.70;;;5.50;64.50;;;;;;4968573;28;20251;-69
2021/12/01 03:01:31;;;;;;;7.77;3.87;;;5.40;65.00;;;;;;4955037;29;20291;-69
2021/12/01 03:04:00;;;;;;;5.60;3.73;;;5.40;65.20;;;;;;4953922;29;20224;-69
2021/12/01 03:06:27;;;;;;;5.53;3.90;;;5.30;65.50;;;;;;4962456;28;20207;-69
2021/12/01 03:08:58;;;;;;;4.63;3.60;;;5.30;65.80;;;;;;4953891;29;20326;-69
2021/12/01 03:11:26;;;;;;;9.97;4.13;;;5.20;66.00;;;;;;4953389;29;20557;-69
2021/12/01 03:13:54;;;;;;;6.90;4.00;;;5.20;66.40;;;;;;4953145;28;20306;-69
2021/12/01 03:16:22;;;;;;;5.70;4.00;;;5.10;66.80;;;;;;4963944;28;20607;-69
2021/12/01 03:18:50;;;;;;;8.97;4.10;;;5.00;66.90;;;;;;4951663;29;20267;-69
2021/12/01 03:21:18;;;;;;;6.50;4.10;;;4.90;67.20;;;;;;4953875;28;20327;-69
2021/12/01 03:23:45;;;;;;;6.53;4.80;;;4.90;67.50;;;;;;4957647;29;20219;-69
2021/12/01 03:26:13;;;;;;;7.07;4.23;;;4.90;67.80;;;;;;4957896;28;20289;-69
2021/12/01 03:28:40;;;;;;;5.60;4.07;;;4.90;67.80;;;;;;4955244;28;20236;-69
2021/12/01 03:31:08;;;;;;;5.63;4.20;;;4.90;67.90;;;;;;4957686;28;20311;-69
2021/12/01 03:33:36;;;;;;;7.57;4.57;;;4.90;68.00;;;;;;4966265;28;20216;-69
2021/12/01 03:36:04;;;;;;;7.70;4.33;;;4.90;68.30;;;;;;4966510;28;20210;-69
2021/12/01 03:38:31;;;;;;;8.07;4.43;;;4.90;68.50;;;;;;4957889;29;20242;-69
2021/12/01 03:40:59;;;;;;;7.73;4.67;;;4.90;68.60;;;;;;4955319;29;20246;-69
2021/12/01 03:43:27;;;;;;;6.27;4.93;;;4.90;68.60;;;;;;4958282;28;20309;-69
2021/12/01 03:45:54;;;;;;;9.30;5.37;;;4.90;68.70;;;;;;4955138;29;20287;-69
2021/12/01 03:48:23;;;;;;;11.90;4.90;;;4.80;68.80;;;;;;4956905;28;20216;-69
2021/12/01 03:50:52;;;;;;;9.30;5.43;;;4.90;68.90;;;;;;4957655;28;20222;-69
2021/12/01 03:53:20;;;;;;;7.37;4.60;;;4.80;68.80;;;;;;4957557;28;20243;-69
2021/12/01 03:55:49;;;;;;;9.40;5.27;;;4.80;68.70;;;;;;4956774;29;20295;-69
2021/12/01 03:58:16;;;;;;;11.07;4.43;;;4.90;68.60;;;;;;4956951;28;20545;-69
2021/12/01 04:00:44;;;;;;;5.70;4.27;;;4.80;68.60;;;;;;4956743;29;20223;-69
2021/12/01 04:03:11;;;;;;;7.73;4.00;;;4.80;68.60;;;;;;4955547;28;20633;-69
2021/12/01 04:05:39;;;;;;;5.57;3.93;;;4.80;68.90;;;;;;4957459;28;20219;-69
2021/12/01 04:08:07;;;;;;;6.17;4.43;;;4.80;69.00;;;;;;4957907;28;20219;-69
2021/12/01 04:10:35;;;;;;;6.33;3.93;;;4.80;69.00;;;;;;4957384;28;20235;-69
2021/12/01 04:13:03;;;;;;;8.30;4.27;;;4.80;69.10;;;;;;4956813;28;20230;-69
2021/12/01 04:15:30;;;;;;;6.97;4.93;;;4.80;69.20;;;;;;4953529;29;20283;-69
2021/12/01 04:17:58;;;;;;;9.00;4.90;;;4.70;69.30;;;;;;4957082;28;20286;-69
2021/12/01 04:20:26;;;;;;;6.63;4.57;;;4.70;69.40;;;;;;4956178;29;20554;-69
2021/12/01 04:22:53;;;;;;;8.17;4.43;;;4.70;69.30;;;;;;4953920;28;20200;-69
2021/12/01 04:25:21;;;;;;;6.77;4.27;;;4.70;69.30;;;;;;4956105;29;20222;-69
2021/12/01 04:27:48;;;;;;;6.27;4.23;;;4.70;69.40;;;;;;4956633;28;20537;-69
2021/12/01 04:30:19;;;;;;;6.97;4.30;;;4.70;69.20;;;;;;4957176;28;20270;-69
2021/12/01 04:32:47;;;;;;;7.17;4.03;;;4.70;69.20;;;;;;4968418;28;20623;-69
2021/12/01 04:35:17;;;;;;;7.30;4.43;;;4.70;69.90;;;;;;4957063;28;20671;-69
2021/12/01 04:37:46;;;;;;;8.40;4.30;;;4.80;69.40;;;;;;4957085;28;20211;-69
2021/12/01 04:40:14;;;;;;;8.03;4.23;;;4.70;69.30;;;;;;4970628;28;20306;-69
2021/12/01 04:42:43;;;;;;;6.20;4.00;;;4.70;69.60;;;;;;4956139;28;20234;-69
2021/12/01 04:45:15;;;;;;;6.57;4.13;;;4.70;69.80;;;;;;4953032;29;20283;-69
2021/12/01 04:47:44;;;;;;;6.07;3.77;;;4.70;69.90;;;;;;4956050;28;20232;-69
2021/12/01 04:50:13;;;;;;;7.17;4.20;;;4.70;70.10;;;;;;4954398;29;20291;-69
2021/12/01 04:52:40;;;;;;;5.10;3.93;;;4.70;70.10;;;;;;4960430;29;20236;-69
2021/12/01 04:55:08;;;;;;;5.53;3.77;;;4.70;70.00;;;;;;4958076;28;20632;-69
2021/12/01 04:57:43;;;;;;;8.57;4.13;;;4.70;70.10;;;;;;4956562;28;20239;-69
2021/12/01 05:00:15;;;;;;;5.30;3.90;;;4.70;70.20;;;;;;4961178;28;20209;-69
2021/12/01 05:02:43;;;;;;;8.13;3.67;;;4.70;70.30;;;;;;4958375;28;20208;-69
2021/12/01 05:05:10;;;;;;;6.77;3.80;;;4.70;70.30;;;;;;4961192;28;20274;-69
2021/12/01 05:07:38;;;;;;;6.83;4.47;;;4.70;70.40;;;;;;4961058;28;20207;-69
2021/12/01 05:10:06;;;;;;;6.03;3.90;;;4.70;70.40;;;;;;4953693;29;20216;-69
2021/12/01 05:12:34;;;;;;;6.60;4.47;;;4.70;70.50;;;;;;4957300;29;20235;-69
2021/12/01 05:15:02;;;;;;;7.00;4.30;;;4.70;70.40;;;;;;4961246;28;20625;-69
2021/12/01 05:17:29;;;;;;;5.20;4.00;;;4.70;70.50;;;;;;4959868;28;20245;-69
2021/12/01 05:19:57;;;;;;;5.67;3.70;;;4.70;70.50;;;;;;4959982;29;20215;-69
2021/12/01 05:22:25;;;;;;;5.00;3.93;;;4.70;70.60;;;;;;4959494;28;20260;-69
2021/12/01 05:24:54;;;;;;;6.43;3.93;;;4.70;70.80;;;;;;4959561;28;20712;-69
2021/12/01 05:27:22;;;;;;;8.27;4.00;;;4.60;70.90;;;;;;4969160;28;20247;-69
2021/12/01 05:29:49;;;;;;;7.03;4.10;;;4.60;71.00;;;;;;4959476;28;20210;-69
2021/12/01 05:32:17;;;;;;;6.00;3.97;;;4.60;71.10;;;;;;4956008;29;20247;-69
2021/12/01 05:34:45;;;;;;;6.87;3.97;;;4.60;71.30;;;;;;4953092;29;20586;-69
2021/12/01 05:37:12;;;;;;;5.90;4.10;;;4.60;71.50;;;;;;4955894;28;20643;-69
2021/12/01 05:39:44;;;;;;;6.57;4.00;;;4.50;71.50;;;;;;4955700;29;20221;-69
2021/12/01 05:42:12;;;;;;;9.20;4.90;;;4.50;71.50;;;;;;4955889;28;20231;-69
2021/12/01 05:44:40;;;;;;;6.50;3.97;;;4.60;71.70;;;;;;4954500;28;20216;-69
2021/12/01 05:47:08;;;;;;;5.23;4.03;;;4.50;71.60;;;;;;4967387;28;20296;-69
2021/12/01 05:49:43;;;;;;;9.50;4.50;;;4.60;71.70;;;;;;4955865;28;20283;-69
2021/12/01 05:52:13;;;;;;;10.57;4.37;;;4.50;71.70;;;;;;4954250;28;20221;-69
2021/12/01 05:54:40;;;;;;;7.43;4.87;;;4.50;71.90;;;;;;4954193;29;20215;-69
2021/12/01 05:57:08;;;;;;;4.63;3.77;;;4.50;71.90;;;;;;4953347;29;20268;-69
2021/12/01 05:59:36;;;;;;;7.27;4.73;;;4.50;72.00;;;;;;4955611;28;20210;-69
2021/12/01 06:02:08;;;;;;;5.20;3.73;;;4.50;72.10;;;;;;4950460;29;20214;-69
2021/12/01 06:04:36;;;;;;;5.47;4.00;;;4.50;72.10;;;;;;4955303;28;20271;-69
2021/12/01 06:07:04;;;;;;;5.87;3.73;;;4.50;72.20;;;;;;4955070;28;20208;-69
2021/12/01 06:09:31;;;;;;;5.83;4.10;;;4.50;73.10;;;;;;4956583;28;20224;-69
2021/12/01 06:11:58;;;;;;;5.63;4.10;;;4.40;72.50;;;;;;4954149;29;20263;-69
2021/12/01 06:14:27;;;;;;;8.77;4.23;;;4.50;72.70;;;;;;4954639;29;20279;-69
2021/12/01 06:16:54;;;;;;;6.60;4.20;;;4.40;72.70;;;;;;4968858;28;20324;-69
2021/12/01 06:19:22;;;;;;;6.80;4.00;;;4.40;72.70;;;;;;4955027;29;20241;-69
2021/12/01 06:21:49;;;;;;;7.87;3.60;;;4.30;72.60;;;;;;4956035;28;20267;-69
2021/12/01 06:24:16;;;;;;;14.27;6.23;;;4.30;72.80;;;;;;4955861;29;20211;-69
2021/12/01 06:26:44;;;;;;;7.20;4.23;;;4.30;72.80;;;;;;4963116;28;20311;-69
2021/12/01 06:29:11;;;;;;;7.27;3.97;;;4.30;72.90;;;;;;4963139;28;20692;-69
2021/12/01 06:31:39;;;;;;;9.17;4.40;;;4.20;72.90;;;;;;4938988;29;20222;-69
2021/12/01 06:34:06;;;;;;;5.10;3.27;;;4.20;73.10;;;;;;4956378;28;20213;-69
2021/12/01 06:36:33;;;;;;;7.57;3.80;;;4.30;73.40;;;;;;4955146;29;20226;-69
2021/12/01 06:39:01;;;;;;;8.53;4.80;;;4.20;73.30;;;;;;4955457;28;20219;-68
2021/12/01 06:41:28;;;;;;;8.63;4.03;;;4.30;73.30;;;;;;4954218;29;20211;-69
2021/12/01 06:43:56;;;;;;;6.27;4.40;;;4.30;73.20;;;;;;4955840;28;20239;-69
2021/12/01 06:46:23;;;;;;;10.93;5.43;;;4.30;73.10;;;;;;4955286;28;20297;-69
2021/12/01 06:48:51;;;;;;;8.73;4.40;;;4.20;73.60;;;;;;4953990;28;20213;-69
2021/12/01 06:51:19;;;;;;;9.03;4.80;;;4.10;74.20;;;;;;4951794;29;20320;-68
2021/12/01 06:53:46;;;;;;;8.03;5.03;;;4.10;74.30;;;;;;4954807;28;20202;-68
2021/12/01 06:56:15;;;;;;;9.53;5.23;;;4.10;74.60;;;;;;4971533;28;20211;-68
2021/12/01 06:58:43;;;;;;;10.00;4.60;;;4.00;74.50;;;;;;4958754;28;20264;-68
2021/12/01 07:01:13;;;;;;;5.63;4.30;;;4.00;74.70;;;;;;4957487;29;20203;-68
2021/12/01 07:03:42;;;;;;;7.57;4.80;;;3.90;75.10;;;;;;4958812;28;20542;-68
2021/12/01 07:06:09;;;;;;;6.70;4.57;;;3.80;75.30;;;;;;4955955;28;20598;-68
2021/12/01 07:08:37;;;;;;;11.87;5.67;;;3.80;75.80;;;;;;4957656;28;20234;-68
2021/12/01 07:11:06;;;;;;;9.33;5.27;;;3.70;76.10;;;;;;4958071;28;20493;-68
2021/12/01 07:13:34;;;;;;;9.83;5.53;;;3.70;76.40;;;;;;4956628;29;20240;-68
2021/12/01 07:16:02;;;;;;;9.90;5.77;;;3.70;76.40;;;;;;4958007;28;20200;-68
2021/12/01 07:18:30;;;;;;;9.83;5.93;;;3.80;76.40;;;;;;4955052;29;20543;-68
2021/12/01 07:20:58;;;;;;;9.73;5.37;;;3.80;76.50;;;;;;4958118;28;20282;-69
2021/12/01 07:23:25;;;;;;;9.10;5.70;;;3.90;76.60;;;;;;4956311;29;20266;-69
2021/12/01 07:26:01;;;;;;;8.33;5.60;;;4.00;76.80;;;;;;4971456;28;20219;-69
2021/12/01 07:28:28;;;;;;;7.40;5.67;;;4.00;76.80;;;;;;4955541;29;20656;-69
2021/12/01 07:30:56;;;;;;;8.93;5.70;;;4.10;76.80;;;;;;4951943;29;20219;-68
2021/12/01 07:33:28;;;;;;;8.17;5.20;;;4.20;76.80;;;;;;4958046;28;20226;-68
2021/12/01 07:35:56;;;;;;;10.07;5.70;;;4.30;76.60;;;;;;4970775;28;20223;-68
2021/12/01 07:38:23;;;;;;;8.53;5.33;;;4.40;76.80;;;;;;4957960;28;20257;-68
2021/12/01 07:40:50;;;;;;;8.60;5.33;;;4.40;76.40;;;;;;4956579;29;20198;-68
2021/12/01 07:43:18;;;;;;;12.87;5.77;;;4.50;76.10;;;;;;4958012;28;20292;-69
2021/12/01 07:45:46;;;;;;;8.50;5.53;;;4.50;76.10;;;;;;4955196;29;20226;-69
2021/12/01 07:48:13;;;;;;;8.33;5.57;;;4.60;76.30;;;;;;4957086;28;20235;-69
2021/12/01 07:50:41;;;;;;;8.60;5.77;;;4.70;76.30;;;;;;4970009;28;20285;-69
2021/12/01 07:53:09;;;;;;;15.03;6.33;;;4.80;75.80;;;;;;4957170;28;20297;-69
2021/12/01 07:55:36;;;;;;;10.60;5.50;;;4.90;75.60;;;;;;4967025;28;20619;-69
2021/12/01 07:58:03;;;;;;;7.33;5.20;;;5.00;75.50;;;;;;4967777;28;20202;-69
2021/12/01 08:00:31;;;;;;;7.03;4.97;;;5.10;75.10;;;;;;4957077;28;20303;-69
2021/12/01 08:02:58;;;;;;;10.87;5.50;;;5.10;74.20;;;;;;4957878;28;20283;-69
2021/12/01 08:05:26;;;;;;;7.37;5.10;;;5.20;74.20;;;;;;4953573;29;20576;-69
2021/12/01 08:07:55;;;;;;;8.90;5.63;;;5.30;74.40;;;;;;4957071;28;20207;-69
2021/12/01 08:10:23;;;;;;;8.30;5.27;;;5.40;74.40;;;;;;4956494;29;20305;-69
2021/12/01 08:12:50;;;;;;;7.83;5.60;;;5.50;74.80;;;;;;4955467;29;20252;-69
2021/12/01 08:15:21;;;;;;;8.33;5.83;;;5.60;74.30;;;;;;4957255;28;20216;-69
2021/12/01 08:17:48;;;;;;;7.87;5.67;;;5.70;73.80;;;;;;4953246;29;20240;-69
2021/12/01 08:20:16;;;;;;;8.37;5.83;;;5.70;74.10;;;;;;4954871;28;20294;-69
2021/12/01 08:22:43;;;;;;;8.80;5.60;;;5.80;73.80;;;;;;4954066;29;20254;-69
2021/12/01 08:25:10;;;;;;;11.17;5.77;;;5.90;73.50;;;;;;4957140;28;20620;-69
2021/12/01 08:27:38;;;;;;;8.07;6.13;;;6.00;72.80;;;;;;4957082;28;20218;-69
2021/12/01 08:30:06;;;;;;;11.37;5.63;;;6.10;71.90;;;;;;4957026;28;20307;-69
2021/12/01 08:32:34;;;;;;;10.07;5.80;;;6.20;72.10;;;;;;4956030;28;20328;-69
2021/12/01 08:35:02;;;;;;;9.90;6.30;;;6.30;71.90;;;;;;4957215;28;20306;-69
2021/12/01 08:37:29;;;;;;;9.10;6.03;;;6.30;70.90;;;;;;4955499;28;20207;-69
2021/12/01 08:39:56;;;;;;;9.73;6.00;;;6.40;70.60;;;;;;4966688;28;20239;-69
2021/12/01 08:42:24;;;;;;;13.77;7.20;;;6.40;70.00;;;;;;4956546;28;20671;-68
2021/12/01 08:44:52;;;;;;;10.43;6.80;;;6.50;70.00;;;;;;4955918;29;20231;-69
2021/12/01 08:47:23;;;;;;;11.57;6.83;;;6.50;70.50;;;;;;4952976;28;20205;-69
2021/12/01 08:49:51;;;;;;;9.80;6.43;;;6.60;70.70;;;;;;4956786;28;20308;-69
2021/12/01 08:52:19;;;;;;;8.70;6.63;;;6.70;70.80;;;;;;4953921;29;20320;-69
2021/12/01 08:54:46;;;;;;;13.33;6.77;;;6.80;70.80;;;;;;4954972;29;20294;-69
2021/12/01 08:57:13;;;;;;;10.37;6.80;;;6.90;70.70;;;;;;4970264;28;20240;-68
2021/12/01 08:59:41;;;;;;;8.47;6.33;;;7.00;69.60;;;;;;4954164;28;20301;-69
2021/12/01 09:02:08;;;;;;;7.73;6.17;;;7.10;70.00;;;;;;4937328;29;20227;-68
2021/12/01 09:04:36;;;;;;;10.83;6.50;;;7.10;68.50;;;;;;4955640;28;20231;-69
2021/12/01 09:07:05;;;;;;;10.53;7.57;;;7.20;67.30;;;;;;4956189;28;20295;-69
2021/12/01 09:09:33;;;;;;;11.83;7.07;;;7.30;68.40;;;;;;4956426;28;20265;-69
2021/12/01 09:12:00;;;;;;;10.07;7.10;;;7.40;67.80;;;;;;4956973;29;20324;-69
2021/12/01 09:14:27;;;;;;;7.63;6.73;;;7.50;68.00;;;;;;4953807;29;20288;-69
2021/12/01 09:16:55;;;;;;;11.33;6.77;;;7.60;66.70;;;;;;4955346;28;20197;-69
2021/12/01 09:19:23;;;;;;;8.60;5.83;;;7.70;66.60;;;;;;4956211;28;20291;-69
2021/12/01 09:21:51;;;;;;;9.13;6.37;;;7.80;65.70;;;;;;4955904;28;20404;-69
2021/12/01 09:24:21;;;;;;;12.33;6.13;;;7.90;65.90;;;;;;4956464;28;20541;-69
2021/12/01 09:26:49;;;;;;;9.20;6.43;;;8.00;65.80;;;;;;4955741;28;20239;-69
2021/12/01 09:29:17;;;;;;;10.30;6.73;;;8.10;65.40;;;;;;4954244;29;20680;-69
2021/12/01 09:31:45;;;;;;;21.37;7.20;;;8.20;66.40;;;;;;4952531;29;20209;-69
2021/12/01 09:34:12;;;;;;;10.17;7.13;;;8.30;64.30;;;;;;4956107;28;20228;-69
2021/12/01 09:36:40;;;;;;;10.57;7.10;;;8.30;65.00;;;;;;4954823;28;20208;-69
2021/12/01 09:39:07;;;;;;;11.43;7.10;;;8.40;65.50;;;;;;4956277;28;20296;-69
2021/12/01 09:41:36;;;;;;;12.63;8.63;;;8.40;65.30;;;;;;4955395;28;20210;-69
2021/12/01 09:44:04;;;;;;;9.93;8.03;;;8.40;65.60;;;;;;4955296;29;20616;-69
2021/12/01 09:46:31;;;;;;;8.17;7.17;;;8.40;64.70;;;;;;4952663;29;20726;-69
2021/12/01 09:48:59;;;;;;;13.43;7.90;;;8.50;64.70;;;;;;4953704;29;20226;-69
2021/12/01 09:51:27;;;;;;;10.63;7.33;;;8.50;65.30;;;;;;4955373;28;20202;-69
2021/12/01 09:53:55;;;;;;;11.03;7.57;;;8.50;67.60;;;;;;4956027;28;20234;-69
2021/12/01 09:56:24;;;;;;;13.20;8.00;;;8.60;67.40;;;;;;4955480;29;20634;-69
2021/12/01 09:58:51;;;;;;;10.20;7.77;;;8.70;65.80;;;;;;4955457;29;20601;-69
2021/12/01 10:01:22;;;;;;;10.93;8.07;;;8.70;66.90;;;;;;4955901;29;20213;-69
2021/12/01 10:03:51;;;;;;;12.97;6.87;;;8.70;67.60;;;;;;4953878;29;20213;-69
2021/12/01 10:06:21;;;;;;;9.43;7.03;;;8.70;66.50;;;;;;4954314;29;20249;-69
2021/12/01 10:08:57;;;;;;;8.40;6.67;;;8.70;65.70;;;;;;4954048;29;20209;-69
2021/12/01 10:11:33;;;;;;;8.47;6.80;;;8.80;65.90;;;;;;4953327;29;20575;-69
2021/12/01 10:14:04;;;;;;;8.93;7.33;;;8.80;65.40;;;;;;4954452;29;20225;-69
2021/12/01 10:16:36;;;;;;;13.93;8.20;;;8.90;64.30;;;;;;4955409;28;20206;-70
2021/12/01 10:19:16;;;;;;;10.20;7.80;;;8.90;69.10;;;;;;4955510;28;20208;-69
2021/12/01 10:21:48;;;;;;;9.93;7.70;;;9.00;67.10;;;;;;4965841;28;20273;-69
2021/12/01 10:24:23;;;;;;;10.90;7.93;;;9.10;65.90;;;;;;4949368;28;20209;-69
2021/12/01 10:26:54;;;;;;;13.33;9.23;;;9.20;65.10;;;;;;4953439;29;20268;-69
2021/12/01 10:29:31;;;;;;;11.20;8.73;;;9.20;65.60;;;;;;4967467;28;20206;-69
2021/12/01 10:32:01;;;;;;;10.20;7.93;;;9.20;64.70;;;;;;4953492;29;20219;-69
2021/12/01 10:34:31;;;;;;;12.33;8.60;;;9.30;64.80;;;;;;4955168;29;20212;-69
2021/12/01 10:37:10;;;;;;;10.23;7.70;;;9.30;63.60;;;;;;4953873;29;20667;-69
2021/12/01 10:39:43;;;;;;;11.87;7.30;;;9.40;64.80;;;;;;4954218;29;20714;-69
2021/12/01 10:42:16;;;;;;;11.90;8.37;;;9.40;63.40;;;;;;4953955;29;20212;-70
2021/12/01 10:45:16;;;;;;;9.93;7.63;;;9.40;64.70;;;;;;4955220;29;20270;-69
2021/12/01 10:47:45;;;;;;;9.57;7.30;;;9.50;63.40;;;;;;4959776;28;20250;-69
2021/12/01 10:50:24;;;;;;;12.93;8.07;;;9.50;62.20;;;;;;4954991;29;20543;-69
2021/12/01 10:53:09;;;;;;;11.53;7.37;;;9.60;63.40;;;;;;4955073;28;20304;-69
2021/12/01 10:55:46;;;;;;;14.77;8.00;;;9.60;61.50;;;;;;4956295;29;20264;-69
2021/12/01 10:58:15;;;;;;;12.17;8.67;;;9.70;62.30;;;;;;4954724;28;20284;-69
2021/12/01 11:00:46;;;;;;;11.67;8.33;;;9.70;62.90;;;;;;4954822;28;20628;-69
2021/12/01 11:03:15;;;;;;;12.07;7.60;;;9.80;63.50;;;;;;4967994;28;20234;-69
2021/12/01 11:05:51;;;;;;;10.03;8.50;;;9.80;63.00;;;;;;4953946;28;20207;-69
2021/12/01 11:08:29;;;;;;;12.63;8.83;;;9.90;64.30;;;;;;4954462;28;20586;-69
2021/12/01 11:11:03;;;;;;;14.53;8.80;;;9.90;62.80;;;;;;4953130;29;20285;-69
2021/12/01 11:13:31;;;;;;;10.77;8.40;;;10.00;64.00;;;;;;4954885;28;20226;-69
2021/12/01 11:16:03;;;;;;;12.33;8.13;;;10.10;63.40;;;;;;4952365;29;20677;-69
2021/12/01 11:18:51;;;;;;;10.03;8.60;;;10.10;61.00;;;;;;4954021;29;20715;-69
2021/12/01 11:21:24;;;;;;;10.70;8.17;;;10.20;61.10;;;;;;4954198;28;20305;-69
2021/12/01 11:23:54;;;;;;;13.90;9.00;;;10.20;61.00;;;;;;4955486;28;20210;-69
2021/12/01 11:26:24;;;;;;;11.90;9.63;;;10.10;62.00;;;;;;4952266;28;20587;-69
2021/12/01 11:28:58;;;;;;;13.97;9.37;;;10.00;63.50;;;;;;4968435;28;20308;-69
2021/12/01 11:31:41;;;;;;;10.67;8.60;;;10.00;64.40;;;;;;4963880;28;20244;-69
2021/12/01 11:34:15;;;;;;;11.17;7.93;;;9.90;65.30;;;;;;4945145;29;20234;-69
2021/12/01 11:36:51;;;;;;;13.00;9.20;;;9.90;63.60;;;;;;4946383;29;20216;-69
2021/12/01 11:39:25;;;;;;;15.37;9.27;;;10.00;64.30;;;;;;4970330;28;20298;-69
2021/12/01 11:41:54;;;;;;;13.27;9.43;;;10.10;64.40;;;;;;4953277;28;20242;-69
2021/12/01 11:44:25;;;;;;;14.60;9.20;;;10.10;64.00;;;;;;4956326;29;20609;-69
2021/12/01 11:46:53;;;;;;;12.87;9.20;;;10.10;64.00;;;;;;4956361;29;20685;-69
2021/12/01 11:49:23;;;;;;;11.10;9.23;;;10.10;65.40;;;;;;4958013;29;20553;-69
2021/12/01 11:52:00;;;;;;;15.20;9.77;;;10.10;64.70;;;;;;4956632;28;20525;-69
2021/12/01 11:54:28;;;;;;;15.20;9.53;;;10.10;64.60;;;;;;4957666;29;20324;-69
2021/12/01 11:57:06;;;;;;;19.63;9.77;;;10.10;66.00;;;;;;4969922;28;20202;-69
2021/12/01 11:59:38;;;;;;;11.73;9.47;;;10.10;65.20;;;;;;4958809;28;20690;-69
2021/12/01 12:02:24;;;;;;;11.93;9.87;;;10.20;64.60;;;;;;4958313;29;20296;-69
2021/12/01 12:04:56;;;;;;;13.50;8.97;;;10.30;64.00;;;;;;4959034;28;20207;-69
2021/12/01 12:07:26;;;;;;;12.50;9.53;;;10.30;63.50;;;;;;4958140;28;20627;-69
2021/12/01 12:10:21;;;;;;;13.53;9.53;;;10.40;62.90;;;;;;4959946;28;20638;-69
2021/12/01 12:13:04;;;;;;;12.37;9.87;;;10.40;62.80;;;;;;4944327;29;20245;-70
2021/12/01 12:15:50;;;;;;;13.10;9.00;;;10.40;62.30;;;;;;4971546;28;20673;-69
2021/12/01 12:18:36;;;;;;;13.23;8.87;;;10.40;62.90;;;;;;4958186;28;20293;-69
2021/12/01 12:21:14;;;;;;;10.57;8.43;;;10.50;63.50;;;;;;4955860;29;20245;-69
2021/12/01 12:23:45;;;;;;;14.10;9.23;;;10.60;62.00;;;;;;4967936;28;20663;-69
2021/12/01 12:26:12;;;;;;;11.60;10.00;;;10.80;62.50;;;;;;4957171;28;20222;-69
2021/12/01 12:28:41;;;;;;;13.40;10.07;;;10.90;63.60;;;;;;4956664;29;20230;-69
2021/12/01 12:31:18;;;;;;;12.23;9.33;;;10.90;62.10;;;;;;4956945;28;20543;-69
2021/12/01 12:33:54;;;;;;;15.07;9.60;;;10.90;62.70;;;;;;4955912;29;20230;-69
2021/12/01 12:36:45;;;;;;;13.33;9.97;;;10.80;62.10;;;;;;4956850;28;20268;-69
2021/12/01 12:39:15;;;;;;;11.87;9.23;;;10.80;64.00;;;;;;4957511;28;20304;-69
2021/12/01 12:41:55;;;;;;;15.13;11.50;;;10.70;62.50;;;;;;4955856;29;20203;-69
2021/12/01 12:44:31;;;;;;;13.87;10.00;;;10.60;63.90;;;;;;4955302;28;20230;-69
2021/12/01 12:47:19;;;;;;;15.33;9.97;;;10.50;64.10;;;;;;4954224;29;20211;-69
2021/12/01 12:49:50;;;;;;;13.93;10.30;;;10.40;64.20;;;;;;4955208;29;20233;-69
2021/12/01 12:52:36;;;;;;;14.17;10.50;;;10.30;63.60;;;;;;4956771;28;20613;-69
2021/12/01 12:55:22;;;;;;;14.40;11.33;;;10.30;64.20;;;;;;4957710;29;20202;-70
2021/12/01 12:57:59;;;;;;;14.43;10.83;;;10.20;65.10;;;;;;4973704;28;20210;-70
2021/12/01 13:00:30;;;;;;;12.83;10.33;;;10.20;65.10;;;;;;4963809;28;20624;-69
2021/12/01 13:03:19;;;;;;;14.83;11.13;;;10.10;65.70;;;;;;4955485;29;20206;-69
2021/12/01 13:05:55;;;;;;;12.77;11.37;;;10.10;67.00;;;;;;4954300;29;20289;-69
2021/12/01 13:08:37;;;;;;;15.50;11.87;;;10.10;68.20;;;;;;4953369;29;20215;-69
2021/12/01 13:11:12;;;;;;;18.30;12.80;;;10.10;67.10;;;;;;4955176;29;20256;-69